Terminal Aerodrome Forecast
Issued by NWS

Home | Current Version | Previous Version | Text Only | Print | Product List | Glossary On
Versions: 1 2 3 4 5 6 7 8 9 10 11 12 13
000
FTUS45 KTFX 010535
TAFLWT
TAF
KLWT 010535Z 0106/0206 VRB05KT P6SM SKC
     FM011600 32008G15KT P6SM SCT070
     FM012000 34008G15KT P6SM BKN070
     FM020100 04006KT P6SM SCT070=

USA.gov is the U.S. government's official web portal to all federal, state and local government web resources and services.